createdAt,value
2023-02-24T00:01:52.694Z,101628.72
2023-02-24T00:04:21.126Z,101642.31
2023-02-24T00:06:48.956Z,101653.22
2023-02-24T00:09:28.799Z,101665.47
2023-02-24T00:12:14.843Z,101663.19
2023-02-24T00:14:45.228Z,101654.69
2023-02-24T00:17:16.505Z,101652.97
2023-02-24T00:19:43.896Z,101649.41
2023-02-24T00:22:11.068Z,101648.97
2023-02-24T00:24:38.504Z,101646.56
2023-02-24T00:27:08.240Z,101649.97
2023-02-24T00:29:42.423Z,101641.97
2023-02-24T00:32:13.726Z,101674.94
2023-02-24T00:34:41.751Z,101649.47
2023-02-24T00:37:09.344Z,101652.13
2023-02-24T00:39:41.890Z,101642.31
2023-02-24T00:42:11.982Z,101639.41
2023-02-24T00:44:46.997Z,101654.06
2023-02-24T00:47:17.174Z,101634.91
2023-02-24T00:49:45.001Z,101657.66
2023-02-24T00:52:18.355Z,101646.09
2023-02-24T00:54:48.222Z,101645.78
2023-02-24T00:57:18.414Z,101647.84
2023-02-24T00:59:51.720Z,101650.91
2023-02-24T01:02:20.240Z,101637.50
2023-02-24T01:04:47.478Z,101652.78
2023-02-24T01:07:14.975Z,101655.66
2023-02-24T01:09:44.043Z,101632.19
2023-02-24T01:12:22.464Z,101658.69
2023-02-24T01:14:53.415Z,101662.25
2023-02-24T01:17:22.142Z,101649.16
2023-02-24T01:19:50.414Z,101627.25
2023-02-24T01:22:19.989Z,101643.59
2023-02-24T01:24:47.652Z,101648.88
2023-02-24T01:27:19.950Z,101655.66
2023-02-24T01:29:50.385Z,101637.66
2023-02-24T01:32:20.628Z,101654.81
2023-02-24T01:34:51.530Z,101644.88
2023-02-24T01:37:19.740Z,101618.06
2023-02-24T01:39:48.198Z,101658.66
2023-02-24T01:42:22.195Z,101659.34
2023-02-24T01:44:52.002Z,101643.00
2023-02-24T01:47:23.479Z,101610.56
2023-02-24T01:49:54.756Z,101630.41
2023-02-24T01:52:34.915Z,101629.72
2023-02-24T01:55:09.310Z,101645.88
2023-02-24T01:57:39.515Z,101648.97
2023-02-24T02:00:30.449Z,101637.41
2023-02-24T02:03:02.224Z,101660.38
2023-02-24T02:05:29.448Z,101636.22
2023-02-24T02:07:57.503Z,101632.47
2023-02-24T02:10:25.631Z,101646.22
2023-02-24T02:12:52.739Z,101658.25
2023-02-24T02:15:20.818Z,101662.69
2023-02-24T02:17:55.433Z,101673.56
2023-02-24T02:20:33.756Z,101659.44
2023-02-24T02:23:19.543Z,101667.00
2023-02-24T02:26:22.154Z,101668.47
2023-02-24T02:29:13.183Z,101676.66
2023-02-24T02:32:18.933Z,101677.72
2023-02-24T02:34:54.151Z,101669.91
2023-02-24T02:37:28.276Z,101675.34
2023-02-24T02:40:17.348Z,101678.09
2023-02-24T02:43:11.797Z,101658.84
2023-02-24T02:46:03.805Z,101672.06
2023-02-24T02:48:52.290Z,101687.53
2023-02-24T02:51:28.268Z,101673.56
2023-02-24T02:54:16.465Z,101677.63
2023-02-24T02:56:55.200Z,101680.38
2023-02-24T02:59:29.762Z,101680.09
2023-02-24T03:02:11.907Z,101653.75
2023-02-24T03:04:54.488Z,101671.09
2023-02-24T03:07:24.814Z,101674.34
2023-02-24T03:09:57.279Z,101672.31
2023-02-24T03:12:29.644Z,101637.50
2023-02-24T03:15:00.411Z,101670.94
2023-02-24T03:17:33.729Z,101655.66
2023-02-24T03:20:20.724Z,101660.44
2023-02-24T03:22:54.764Z,101649.91
2023-02-24T03:25:33.976Z,101653.28
2023-02-24T03:28:10.930Z,101661.13
2023-02-24T03:30:44.649Z,101654.59
2023-02-24T03:33:32.410Z,101645.13
2023-02-24T03:36:02.137Z,101640.22
2023-02-24T03:38:33.820Z,101637.66
2023-02-24T03:41:01.195Z,101631.91
2023-02-24T03:43:35.198Z,101649.38
2023-02-24T03:46:06.229Z,101637.28
2023-02-24T03:48:44.084Z,101640.53
2023-02-24T03:51:21.022Z,101610.25
2023-02-24T03:54:10.200Z,101648.28
2023-02-24T03:56:47.493Z,101631.78
2023-02-24T03:59:34.500Z,101623.09
2023-02-24T04:02:17.332Z,101624.84
2023-02-24T04:04:52.494Z,101632.78
2023-02-24T04:08:01.511Z,101650.81
2023-02-24T04:10:55.053Z,101625.47
2023-02-24T04:13:36.110Z,101656.13
2023-02-24T04:16:29.032Z,101642.00
2023-02-24T04:19:03.998Z,101621.22
2023-02-24T04:21:37.996Z,101650.81
2023-02-24T04:24:11.930Z,101652.97
2023-02-24T04:26:40.929Z,101609.72
2023-02-24T04:29:13.972Z,101636.16
2023-02-24T04:31:41.632Z,101635.00
2023-02-24T04:34:09.616Z,101633.97
2023-02-24T04:36:39.625Z,101649.41
2023-02-24T04:39:07.845Z,101633.59
2023-02-24T04:41:36.003Z,101662.28
2023-02-24T04:44:03.049Z,101654.47
2023-02-24T04:46:32.685Z,101644.78
2023-02-24T04:49:02.378Z,101654.63
2023-02-24T04:51:32.570Z,101645.59
2023-02-24T04:54:00.008Z,101651.31
2023-02-24T04:56:29.087Z,101677.84
2023-02-24T04:58:56.194Z,101665.28
2023-02-24T05:01:23.561Z,101649.94
2023-02-24T05:03:51.150Z,101656.56
2023-02-24T05:06:18.513Z,101659.97
2023-02-24T05:08:45.931Z,101650.75
2023-02-24T05:11:18.666Z,101676.56
2023-02-24T05:13:46.188Z,101688.63
2023-02-24T05:16:17.034Z,101683.84
2023-02-24T05:18:44.910Z,101671.31
2023-02-24T05:21:35.862Z,101690.69
2023-02-24T05:24:11.376Z,101686.81
2023-02-24T05:26:42.029Z,101685.19
2023-02-24T05:29:09.753Z,101683.97
2023-02-24T05:31:38.544Z,101664.38
2023-02-24T05:34:08.641Z,101680.91
2023-02-24T05:36:40.587Z,101688.53
2023-02-24T05:39:12.219Z,101697.59
2023-02-24T05:41:42.377Z,101678.66
2023-02-24T05:44:15.109Z,101677.94
2023-02-24T05:46:44.920Z,101673.47
2023-02-24T05:49:23.677Z,101698.78
2023-02-24T05:51:56.146Z,101680.38
2023-02-24T05:54:33.148Z,101693.16
2023-02-24T05:57:04.278Z,101672.97
2023-02-24T05:59:34.511Z,101663.91
2023-02-24T06:02:09.538Z,101671.81
2023-02-24T06:04:40.848Z,101693.59
2023-02-24T06:07:25.340Z,101678.94
2023-02-24T06:09:57.947Z,101633.91
2023-02-24T06:12:30.879Z,101661.13
2023-02-24T06:14:58.787Z,101666.66
2023-02-24T06:17:26.835Z,101664.06
2023-02-24T06:19:55.099Z,101653.09
2023-02-24T06:22:25.404Z,101659.59
2023-02-24T06:24:54.799Z,101668.28
2023-02-24T06:27:25.254Z,101637.25
2023-02-24T06:29:54.847Z,101654.78
2023-02-24T06:32:26.664Z,101658.06
2023-02-24T06:34:54.803Z,101659.47
2023-02-24T06:37:25.612Z,101652.19
2023-02-24T06:39:53.014Z,101649.84
2023-02-24T06:42:20.054Z,101639.84
2023-02-24T06:44:47.581Z,101661.72
2023-02-24T06:47:18.026Z,101657.22
2023-02-24T06:49:48.203Z,101648.34
2023-02-24T06:52:19.203Z,101648.41
2023-02-24T06:54:48.789Z,101635.59
2023-02-24T06:57:16.280Z,101640.34
2023-02-24T06:59:43.471Z,101640.91
2023-02-24T07:02:11.333Z,101634.94
2023-02-24T07:04:44.195Z,101635.22
2023-02-24T07:07:17.720Z,101639.31
2023-02-24T07:09:45.619Z,101618.56
2023-02-24T07:12:12.921Z,101613.50
2023-02-24T07:14:40.903Z,101636.78
2023-02-24T07:17:08.662Z,101631.94
2023-02-24T07:19:36.867Z,101608.06
2023-02-24T07:22:04.376Z,101624.38
2023-02-24T07:24:36.415Z,101605.53
2023-02-24T07:27:07.234Z,101601.75
2023-02-24T07:29:35.997Z,101607.28
2023-02-24T07:32:05.899Z,101593.28
2023-02-24T07:34:34.673Z,101603.00
2023-02-24T07:37:08.450Z,101569.00
2023-02-24T07:39:39.544Z,101610.19
2023-02-24T07:42:08.765Z,101592.13
2023-02-24T07:44:46.686Z,101573.13
2023-02-24T07:47:16.146Z,101574.25
2023-02-24T07:49:47.367Z,101566.69
2023-02-24T07:52:16.155Z,101583.97
2023-02-24T07:54:44.534Z,101572.44
2023-02-24T07:57:14.151Z,101559.78
2023-02-24T07:59:47.886Z,101588.38
2023-02-24T08:02:16.645Z,101575.34
2023-02-24T08:04:52.421Z,101574.78
2023-02-24T08:07:25.010Z,101580.16
2023-02-24T08:10:14.572Z,101549.72
2023-02-24T08:12:45.604Z,101559.75
2023-02-24T08:15:24.061Z,101576.28
2023-02-24T08:18:00.877Z,101574.50
2023-02-24T08:20:36.241Z,101574.13
2023-02-24T08:23:06.758Z,101534.28
2023-02-24T08:25:37.604Z,101561.41
2023-02-24T08:28:11.973Z,101522.06
2023-02-24T08:30:47.908Z,101537.25
2023-02-24T08:33:21.361Z,101534.22
2023-02-24T08:36:01.441Z,101550.09
2023-02-24T08:38:44.666Z,101549.50
2023-02-24T08:41:22.295Z,101564.31
2023-02-24T08:43:50.159Z,101549.41
2023-02-24T08:46:27.126Z,101547.94
2023-02-24T08:49:01.297Z,101549.56
2023-02-24T08:51:43.968Z,101552.59
2023-02-24T08:54:18.765Z,101532.44
2023-02-24T08:56:56.393Z,101524.13
2023-02-24T08:59:37.898Z,101514.69
2023-02-24T09:02:18.790Z,101492.06
2023-02-24T09:04:47.872Z,101503.97
2023-02-24T09:07:21.854Z,101467.16
2023-02-24T09:09:49.848Z,101489.41
2023-02-24T09:12:25.019Z,101493.94
2023-02-24T09:14:57.549Z,101468.53
2023-02-24T09:18:03.148Z,101491.91
2023-02-24T09:20:48.953Z,101484.75
2023-02-24T09:23:20.410Z,101467.63
2023-02-24T09:25:54.474Z,101486.94
2023-02-24T09:28:26.555Z,101480.75
2023-02-24T09:30:57.117Z,101471.06
2023-02-24T09:33:39.429Z,101469.47
2023-02-24T09:36:11.071Z,101470.03
2023-02-24T09:38:58.810Z,101470.00
2023-02-24T09:41:57.109Z,101463.81
2023-02-24T09:44:29.623Z,101449.16
2023-02-24T09:47:17.405Z,101444.91
2023-02-24T09:49:56.587Z,101446.44
2023-02-24T09:52:40.001Z,101422.22
2023-02-24T09:55:37.700Z,101441.69
2023-02-24T09:58:19.820Z,101441.59
2023-02-24T10:01:21.868Z,101436.50
2023-02-24T10:04:19.574Z,101399.47
2023-02-24T10:06:57.773Z,101418.91
2023-02-24T10:09:41.075Z,101409.16
2023-02-24T10:12:14.900Z,101410.53
2023-02-24T10:15:17.337Z,101403.56
2023-02-24T10:17:55.722Z,101392.00
2023-02-24T10:20:45.898Z,101395.22
2023-02-24T10:23:24.786Z,101392.72
2023-02-24T10:25:56.575Z,101386.09
2023-02-24T10:29:09.152Z,101393.78
2023-02-24T10:31:48.570Z,101388.56
2023-02-24T10:34:26.660Z,101375.81
2023-02-24T10:36:57.701Z,101386.25
2023-02-24T10:39:26.280Z,101379.69
2023-02-24T10:42:15.767Z,101366.72
2023-02-24T10:45:03.280Z,101373.13
2023-02-24T10:47:31.877Z,101343.81
2023-02-24T10:50:05.618Z,101354.91
2023-02-24T10:52:46.517Z,101346.19
2023-02-24T10:55:28.644Z,101367.06
2023-02-24T10:58:57.052Z,101345.28
2023-02-24T11:01:49.680Z,101358.09
2023-02-24T11:04:44.281Z,101330.84
2023-02-24T11:07:25.052Z,101347.75
2023-02-24T11:10:25.957Z,101336.00
2023-02-24T11:13:15.100Z,101322.78
2023-02-24T11:16:05.779Z,101314.41
2023-02-24T11:18:33.361Z,101302.06
2023-02-24T11:21:02.493Z,101309.94
2023-02-24T11:23:42.567Z,101296.84
2023-02-24T11:26:21.005Z,101298.25
2023-02-24T11:29:12.302Z,101303.44
2023-02-24T11:31:52.169Z,101310.63
2023-02-24T11:34:49.708Z,101287.50
2023-02-24T11:37:25.694Z,101301.09
2023-02-24T11:39:56.348Z,101289.72
2023-02-24T11:42:34.665Z,101279.00
2023-02-24T11:45:43.250Z,101284.75
2023-02-24T11:48:15.299Z,101273.31
2023-02-24T11:50:50.942Z,101271.22
2023-02-24T11:53:33.307Z,101277.53
2023-02-24T11:56:02.851Z,101268.72
2023-02-24T11:58:39.724Z,101251.00
2023-02-24T12:01:41.111Z,101245.38
2023-02-24T12:04:43.530Z,101251.94
2023-02-24T12:07:20.079Z,101246.25
2023-02-24T12:10:16.485Z,101242.50
2023-02-24T12:12:51.046Z,101227.78
2023-02-24T12:15:31.154Z,101234.25
2023-02-24T12:18:24.265Z,101221.69
2023-02-24T12:20:59.320Z,101221.44
2023-02-24T12:23:34.280Z,101209.22
2023-02-24T12:26:10.494Z,101214.25
2023-02-24T12:29:19.480Z,101209.47
2023-02-24T12:32:17.845Z,101204.50
2023-02-24T12:35:14.087Z,101200.03
2023-02-24T12:38:15.101Z,101195.56
2023-02-24T12:41:17.308Z,101189.44
2023-02-24T12:44:19.313Z,101182.16
2023-02-24T12:46:54.766Z,101147.09
2023-02-24T12:49:49.231Z,101163.47
2023-02-24T12:52:41.271Z,101172.94
2023-02-24T12:55:19.394Z,101175.16
2023-02-24T12:58:12.605Z,101163.53
2023-02-24T13:00:54.852Z,101167.16
2023-02-24T13:03:37.092Z,101151.25
2023-02-24T13:06:13.531Z,101160.75
2023-02-24T13:09:00.422Z,101156.25
2023-02-24T13:11:55.707Z,101138.66
2023-02-24T13:14:30.374Z,101141.97
2023-02-24T13:17:12.935Z,101158.94
2023-02-24T13:19:44.963Z,101139.47
2023-02-24T13:22:12.422Z,101142.88
2023-02-24T13:24:43.197Z,101133.16
2023-02-24T13:27:13.449Z,101138.16
2023-02-24T13:29:50.166Z,101118.69
2023-02-24T13:32:37.617Z,101145.97
2023-02-24T13:35:27.199Z,101120.06
2023-02-24T13:37:54.893Z,101139.25
2023-02-24T13:40:27.392Z,101128.09
2023-02-24T13:42:57.941Z,101142.81
2023-02-24T13:45:37.183Z,101116.41
2023-02-24T13:48:40.078Z,101123.63
2023-02-24T13:51:16.155Z,101124.69
2023-02-24T13:54:04.482Z,101109.97
2023-02-24T13:56:45.392Z,101112.81
2023-02-24T13:59:21.457Z,101110.59
2023-02-24T14:01:57.507Z,101099.47
2023-02-24T14:04:39.612Z,101082.19
2023-02-24T14:07:11.890Z,101084.97
2023-02-24T14:09:48.752Z,101069.97
2023-02-24T14:12:20.494Z,101097.53
2023-02-24T14:14:49.374Z,101064.66
2023-02-24T14:17:34.646Z,101067.13
2023-02-24T14:20:06.827Z,101087.13
2023-02-24T14:22:35.101Z,101072.06
2023-02-24T14:25:09.327Z,101079.88
2023-02-24T14:27:38.932Z,101074.31
2023-02-24T14:30:08.130Z,101079.59
2023-02-24T14:32:35.597Z,101057.84
2023-02-24T14:35:03.076Z,101073.13
2023-02-24T14:37:32.078Z,101060.91
2023-02-24T14:40:00.808Z,101063.72
2023-02-24T14:42:28.303Z,101059.38
2023-02-24T14:44:59.276Z,101027.09
2023-02-24T14:47:29.087Z,101059.94
2023-02-24T14:49:59.837Z,101077.19
2023-02-24T14:52:33.049Z,101075.53
2023-02-24T14:55:06.907Z,101076.91
2023-02-24T14:57:47.295Z,101062.69
2023-02-24T15:00:30.157Z,101059.91
2023-02-24T15:03:22.828Z,101062.69
2023-02-24T15:05:55.237Z,101051.28
2023-02-24T15:08:29.105Z,101066.06
2023-02-24T15:10:56.514Z,101046.31
2023-02-24T15:13:39.907Z,101065.78
2023-02-24T15:16:37.218Z,101063.53
2023-02-24T15:19:05.668Z,101059.94
2023-02-24T15:21:44.405Z,101056.03
2023-02-24T15:24:25.161Z,101041.56
2023-02-24T15:27:00.557Z,101065.78
2023-02-24T15:29:30.467Z,101067.72
2023-02-24T15:32:00.336Z,101051.56
2023-02-24T15:34:28.658Z,101067.72
2023-02-24T15:37:05.256Z,101022.03
2023-02-24T15:39:34.346Z,101067.09
2023-02-24T15:42:20.948Z,101034.41
2023-02-24T15:44:59.058Z,101064.63
2023-02-24T15:47:29.730Z,101044.66
2023-02-24T15:49:56.833Z,101040.25
2023-02-24T15:52:28.072Z,101034.16
2023-02-24T15:54:56.801Z,101045.75
2023-02-24T15:57:25.137Z,101035.75
2023-02-24T15:59:52.768Z,101038.13
2023-02-24T16:02:22.242Z,101050.44
2023-02-24T16:04:50.596Z,101043.34
2023-02-24T16:07:21.822Z,101016.53
2023-02-24T16:09:52.471Z,101046.13
2023-02-24T16:12:24.285Z,101031.69
2023-02-24T16:14:56.083Z,101025.47
2023-02-24T16:17:40.067Z,101049.91
2023-02-24T16:20:39.796Z,101038.72
2023-02-24T16:23:07.076Z,101037.06
2023-02-24T16:25:43.002Z,101003.25
2023-02-24T16:28:17.742Z,101012.81
2023-02-24T16:30:48.486Z,101002.34
2023-02-24T16:33:17.788Z,100998.78
2023-02-24T16:35:50.203Z,101009.66
2023-02-24T16:38:28.003Z,100994.25
2023-02-24T16:41:01.172Z,100990.53
2023-02-24T16:43:29.932Z,101010.78
2023-02-24T16:46:04.447Z,100995.03
2023-02-24T16:48:40.907Z,100961.81
2023-02-24T16:51:12.383Z,100951.34
2023-02-24T16:53:40.254Z,100999.53
2023-02-24T16:56:07.766Z,100967.28
2023-02-24T16:58:35.834Z,100959.13
2023-02-24T17:01:05.353Z,100972.94
2023-02-24T17:03:44.373Z,100968.06
2023-02-24T17:06:12.255Z,100969.00
2023-02-24T17:08:41.854Z,100974.56
2023-02-24T17:11:13.442Z,100955.09
2023-02-24T17:13:40.934Z,100966.28
2023-02-24T17:16:08.319Z,100964.22
2023-02-24T17:18:35.578Z,100950.97
2023-02-24T17:21:03.687Z,100951.03
2023-02-24T17:23:31.006Z,100967.81
2023-02-24T17:26:01.683Z,100949.69
2023-02-24T17:28:29.034Z,100964.50
2023-02-24T17:30:56.744Z,100947.72
2023-02-24T17:33:24.362Z,100954.44
2023-02-24T17:35:51.615Z,100918.56
2023-02-24T17:38:20.668Z,100942.34
2023-02-24T17:40:51.525Z,100923.44
2023-02-24T17:43:22.197Z,100900.94
2023-02-24T17:45:51.130Z,100862.22
2023-02-24T17:48:21.740Z,100830.97
2023-02-24T17:50:49.380Z,100936.78
2023-02-24T17:53:16.507Z,100912.28
2023-02-24T17:56:01.064Z,100931.19
2023-02-24T17:58:29.223Z,100904.00
2023-02-24T18:00:56.955Z,100888.69
2023-02-24T18:03:24.294Z,100924.63
2023-02-24T18:06:01.416Z,100904.34
2023-02-24T18:08:30.656Z,100920.75
2023-02-24T18:10:59.328Z,100875.13
2023-02-24T18:13:28.172Z,100917.97
2023-02-24T18:15:55.710Z,100888.69
2023-02-24T18:18:23.772Z,100906.22
2023-02-24T18:20:51.458Z,100893.19
2023-02-24T18:23:18.871Z,100909.66
2023-02-24T18:25:46.050Z,100890.16
2023-02-24T18:28:13.275Z,100906.28
2023-02-24T18:30:40.428Z,100881.25
2023-02-24T18:33:07.847Z,100898.22
2023-02-24T18:35:36.146Z,100894.56
2023-02-24T18:38:04.875Z,100899.28
2023-02-24T18:40:32.283Z,100896.19
2023-02-24T18:42:59.359Z,100880.81
2023-02-24T18:45:26.925Z,100886.06
2023-02-24T18:47:54.714Z,100890.53
2023-02-24T18:50:25.175Z,100886.53
2023-02-24T18:52:52.328Z,100887.59
2023-02-24T18:55:20.011Z,100895.22
2023-02-24T18:57:47.557Z,100856.66
2023-02-24T19:00:15.628Z,100881.72
2023-02-24T19:02:43.812Z,100873.97
2023-02-24T19:05:11.085Z,100882.53
2023-02-24T19:07:38.494Z,100858.13
2023-02-24T19:10:07.572Z,100843.53
2023-02-24T19:12:34.747Z,100849.25
2023-02-24T19:15:02.136Z,100862.19
2023-02-24T19:17:30.376Z,100855.06
2023-02-24T19:19:57.511Z,100847.25
2023-02-24T19:22:24.753Z,100844.72
2023-02-24T19:24:52.411Z,100832.72
2023-02-24T19:27:19.724Z,100831.31
2023-02-24T19:29:46.789Z,100845.53
2023-02-24T19:32:14.403Z,100821.19
2023-02-24T19:34:42.895Z,100839.03
2023-02-24T19:37:09.953Z,100821.78
2023-02-24T19:39:37.292Z,100838.06
2023-02-24T19:42:06.684Z,100839.94
2023-02-24T19:44:34.276Z,100835.50
2023-02-24T19:47:01.805Z,100826.97
2023-02-24T19:49:29.410Z,100809.50
2023-02-24T19:51:57.705Z,100836.88
2023-02-24T19:54:25.248Z,100832.72
2023-02-24T19:56:52.660Z,100825.94
2023-02-24T19:59:19.675Z,100816.69
2023-02-24T20:01:51.913Z,100835.28
2023-02-24T20:04:19.391Z,100815.53
2023-02-24T20:06:47.124Z,100811.13
2023-02-24T20:09:17.327Z,100825.63
2023-02-24T20:11:45.844Z,100796.44
2023-02-24T20:14:14.446Z,100813.16
2023-02-24T20:16:42.876Z,100794.19
2023-02-24T20:19:11.846Z,100794.44
2023-02-24T20:21:40.303Z,100804.56
2023-02-24T20:24:13.831Z,100801.69
2023-02-24T20:26:42.940Z,100803.44
2023-02-24T20:29:11.652Z,100794.25
2023-02-24T20:31:39.849Z,100795.75
2023-02-24T20:34:09.566Z,100775.97
2023-02-24T20:36:38.299Z,100776.91
2023-02-24T20:39:08.588Z,100797.50
2023-02-24T20:41:35.753Z,100787.09
2023-02-24T20:44:03.009Z,100764.41
2023-02-24T20:46:32.375Z,100790.47
2023-02-24T20:49:04.443Z,100779.44
2023-02-24T20:51:33.371Z,100775.06
2023-02-24T20:54:00.682Z,100758.13
2023-02-24T20:56:33.125Z,100778.06
2023-02-24T20:59:04.694Z,100773.25
2023-02-24T21:01:33.388Z,100757.25
2023-02-24T21:04:01.536Z,100773.25
2023-02-24T21:06:30.017Z,100756.66
2023-02-24T21:08:58.019Z,100748.19
2023-02-24T21:11:25.784Z,100748.50
2023-02-24T21:13:53.785Z,100751.88
2023-02-24T21:16:22.783Z,100742.56
2023-02-24T21:18:51.614Z,100729.91
2023-02-24T21:21:21.443Z,100746.06
2023-02-24T21:23:50.452Z,100715.00
2023-02-24T21:26:18.536Z,100734.47
2023-02-24T21:28:46.648Z,100738.13
2023-02-24T21:31:17.419Z,100729.53
2023-02-24T21:33:45.190Z,100714.00
2023-02-24T21:36:15.025Z,100736.78
2023-02-24T21:38:43.628Z,100712.34
2023-02-24T21:41:14.909Z,100741.50
2023-02-24T21:43:44.465Z,100729.00
2023-02-24T21:46:16.314Z,100717.03
2023-02-24T21:48:43.646Z,100714.00
2023-02-24T21:51:13.723Z,100709.53
2023-02-24T21:53:43.777Z,100707.31
2023-02-24T21:56:17.853Z,100708.69
2023-02-24T21:58:46.434Z,100727.56
2023-02-24T22:01:17.542Z,100726.19
2023-02-24T22:03:45.289Z,100697.88
2023-02-24T22:06:14.518Z,100716.19
2023-02-24T22:08:45.789Z,100704.81
2023-02-24T22:11:15.760Z,100717.84
2023-02-24T22:13:44.916Z,100695.34
2023-02-24T22:16:20.277Z,100694.22
2023-02-24T22:18:49.360Z,100712.28
2023-02-24T22:21:20.325Z,100695.06
2023-02-24T22:23:50.709Z,100713.13
2023-02-24T22:26:18.984Z,100692.28
2023-02-24T22:28:47.646Z,100707.28
2023-02-24T22:31:17.196Z,100700.13
2023-02-24T22:33:45.175Z,100687.88
2023-02-24T22:36:18.377Z,100676.78
2023-02-24T22:38:46.330Z,100679.84
2023-02-24T22:41:23.534Z,100679.56
2023-02-24T22:43:54.129Z,100664.84
2023-02-24T22:46:26.150Z,100676.50
2023-02-24T22:48:54.922Z,100691.19
2023-02-24T22:51:22.616Z,100679.78
2023-02-24T22:53:50.885Z,100655.22
2023-02-24T22:56:22.156Z,100661.94
2023-02-24T22:58:50.066Z,100679.97
2023-02-24T23:01:26.610Z,100657.25
2023-02-24T23:03:55.919Z,100665.56
2023-02-24T23:06:26.376Z,100656.03
2023-02-24T23:08:54.556Z,100663.25
2023-02-24T23:11:34.263Z,100639.03
2023-02-24T23:14:06.812Z,100663.13
2023-02-24T23:16:35.185Z,100631.19
2023-02-24T23:19:06.104Z,100625.91
2023-02-24T23:21:36.506Z,100653.03
2023-02-24T23:24:05.313Z,100651.41
2023-02-24T23:26:38.878Z,100647.56
2023-02-24T23:29:08.279Z,100646.66
2023-02-24T23:31:35.903Z,100630.31
2023-02-24T23:34:07.385Z,100635.78
2023-02-24T23:36:37.541Z,100645.00
2023-02-24T23:39:07.177Z,100636.72
2023-02-24T23:41:35.893Z,100621.69
2023-02-24T23:44:03.650Z,100610.84
2023-02-24T23:46:33.484Z,100622.28
2023-02-24T23:49:01.305Z,100601.00
2023-02-24T23:51:38.665Z,100621.50
2023-02-24T23:54:13.671Z,100611.78
2023-02-24T23:56:41.483Z,100586.53
2023-02-24T23:59:08.566Z,100606.28
